Terminal Aerodrome Forecast
Issued by NWS Shreveport, LA

Home | Current Version | Previous Version | Text Only | Print | Product List | Glossary On
Versions: 1 2 3 4 5 6 7 8 9 10 11 12 13 14 15 16 17 18
000
FTUS44 KSHV 271100 RRA
TAFELD
TAF
KELD 271149Z 2712/2812 02009KT P6SM SCT120
     FM271500 04012KT P6SM SCT120
     FM272000 04012KT P6SM SCT035 OVC100
     FM280200 03007KT P6SM SCT025 OVC050=

USA.gov is the U.S. government's official web portal to all federal, state and local government web resources and services.